createdAt,value
2018-09-17T00:01:34.651Z,4.40
2018-09-17T00:04:03.153Z,4.45
2018-09-17T00:06:31.715Z,4.25
2018-09-17T00:09:01.503Z,4.22
2018-09-17T00:11:30.320Z,4.45
2018-09-17T00:14:00.015Z,4.42
2018-09-17T00:16:29.089Z,4.25
2018-09-17T00:18:58.163Z,4.50
2018-09-17T00:21:26.697Z,4.45
2018-09-17T00:23:57.648Z,4.15
2018-09-17T00:26:26.642Z,4.45
2018-09-17T00:28:55.209Z,4.92
2018-09-17T00:31:24.123Z,4.40
2018-09-17T00:33:53.346Z,4.28
2018-09-17T00:36:21.959Z,4.30
2018-09-17T00:38:50.976Z,4.30
2018-09-17T00:41:20.732Z,4.58
2018-09-17T00:43:49.275Z,4.22
2018-09-17T00:46:17.922Z,4.62
2018-09-17T00:48:46.553Z,4.47
2018-09-17T00:51:16.438Z,4.33
2018-09-17T00:53:44.919Z,4.78
2018-09-17T00:56:13.485Z,4.20
2018-09-17T00:58:42.042Z,4.15
2018-09-17T01:01:10.699Z,4.83
2018-09-17T01:03:39.590Z,4.90
2018-09-17T01:06:10.453Z,4.97
2018-09-17T01:08:40.117Z,4.50
2018-09-17T01:11:10.010Z,4.47
2018-09-17T01:13:39.014Z,4.65
2018-09-17T01:16:08.995Z,4.40
2018-09-17T01:18:38.184Z,4.37
2018-09-17T01:21:07.744Z,4.35
2018-09-17T01:23:36.436Z,4.58
2018-09-17T01:26:06.710Z,4.30
2018-09-17T01:28:37.136Z,4.92
2018-09-17T01:31:07.472Z,4.47
2018-09-17T01:33:37.284Z,4.22
2018-09-17T01:36:05.781Z,4.50
2018-09-17T01:38:34.584Z,4.30
2018-09-17T01:41:03.418Z,4.20
2018-09-17T01:43:33.178Z,4.20
2018-09-17T01:46:02.794Z,3.87
2018-09-17T01:48:33.166Z,3.60
2018-09-17T01:51:02.157Z,4.65
2018-09-17T01:53:30.787Z,4.60
2018-09-17T01:56:00.022Z,4.40
2018-09-17T01:58:30.400Z,4.70
2018-09-17T02:00:59.908Z,4.37
2018-09-17T02:03:28.820Z,4.47
2018-09-17T02:05:57.547Z,4.15
2018-09-17T02:08:26.441Z,4.40
2018-09-17T02:10:55.002Z,4.17
2018-09-17T02:13:23.617Z,4.28
2018-09-17T02:15:52.243Z,4.30
2018-09-17T02:18:20.752Z,4.12
2018-09-17T02:20:49.245Z,3.90
2018-09-17T02:23:17.784Z,4.10
2018-09-17T02:25:46.342Z,3.77
2018-09-17T02:28:14.850Z,3.98
2018-09-17T02:30:43.629Z,4.00
2018-09-17T02:33:12.127Z,4.33
2018-09-17T02:35:40.652Z,4.67
2018-09-17T02:38:09.214Z,4.00
2018-09-17T02:40:38.282Z,4.30
2018-09-17T02:43:07.797Z,4.22
2018-09-17T02:45:36.680Z,3.80
2018-09-17T02:48:05.364Z,3.70
2018-09-17T02:50:34.147Z,3.70
2018-09-17T02:53:02.759Z,3.92
2018-09-17T02:55:32.197Z,3.98
2018-09-17T02:58:00.736Z,3.83
2018-09-17T03:00:29.308Z,3.60
2018-09-17T03:02:58.237Z,4.42
2018-09-17T03:05:26.738Z,3.72
2018-09-17T03:07:55.368Z,3.85
2018-09-17T03:10:24.376Z,4.33
2018-09-17T03:12:52.977Z,4.40
2018-09-17T03:15:32.633Z,4.83
2018-09-17T03:18:01.127Z,4.67
2018-09-17T03:20:29.660Z,4.12
2018-09-17T03:22:58.288Z,4.12
2018-09-17T03:25:26.784Z,4.08
2018-09-17T03:27:55.319Z,4.70
2018-09-17T03:30:23.974Z,4.73
2018-09-17T03:32:52.420Z,4.20
2018-09-17T03:35:20.979Z,4.40
2018-09-17T03:37:49.949Z,4.67
2018-09-17T03:40:18.744Z,4.58
2018-09-17T03:42:47.615Z,4.40
2018-09-17T03:45:16.250Z,4.35
2018-09-17T03:47:46.316Z,4.40
2018-09-17T03:50:15.018Z,4.20
2018-09-17T03:52:44.205Z,4.20
2018-09-17T03:55:13.148Z,4.20
2018-09-17T03:57:41.940Z,5.00
2018-09-17T04:00:11.096Z,4.67
2018-09-17T04:02:39.882Z,4.70
2018-09-17T04:05:08.604Z,4.58
2018-09-17T04:07:37.890Z,4.70
2018-09-17T04:10:06.716Z,5.20
2018-09-17T04:12:35.680Z,4.67
2018-09-17T04:15:04.588Z,4.53
2018-09-17T04:17:33.345Z,4.77
2018-09-17T04:20:02.593Z,4.83
2018-09-17T04:22:31.664Z,4.80
2018-09-17T04:25:01.666Z,4.92
2018-09-17T04:27:30.934Z,5.15
2018-09-17T04:29:59.787Z,5.15
2018-09-17T04:32:38.012Z,5.05
2018-09-17T04:35:07.815Z,4.95
2018-09-17T04:37:38.255Z,4.97
2018-09-17T04:40:08.558Z,5.05
2018-09-17T04:42:38.719Z,5.00
2018-09-17T04:45:07.711Z,4.72
2018-09-17T04:47:36.667Z,5.15
2018-09-17T04:50:05.420Z,4.87
2018-09-17T04:52:39.164Z,5.20
2018-09-17T04:55:10.420Z,5.27
2018-09-17T04:57:39.294Z,5.23
2018-09-17T05:00:08.662Z,5.10
2018-09-17T05:02:37.632Z,5.17
2018-09-17T05:05:06.845Z,5.67
2018-09-17T05:07:35.843Z,5.40
2018-09-17T05:10:04.490Z,5.50
2018-09-17T05:12:33.274Z,5.60
2018-09-17T05:15:02.596Z,5.72
2018-09-17T05:17:32.259Z,5.10
2018-09-17T05:20:01.326Z,5.62
2018-09-17T05:22:39.530Z,5.60
2018-09-17T05:25:08.598Z,5.50
2018-09-17T05:27:37.520Z,5.30
2018-09-17T05:30:06.200Z,5.10
2018-09-17T05:32:34.975Z,5.25
2018-09-17T05:35:03.715Z,5.40
2018-09-17T05:37:32.636Z,5.22
2018-09-17T05:40:01.531Z,5.43
2018-09-17T05:42:30.865Z,5.50
2018-09-17T05:44:59.637Z,5.55
2018-09-17T05:47:28.428Z,5.47
2018-09-17T05:49:57.288Z,5.40
2018-09-17T05:52:26.277Z,5.58
2018-09-17T05:54:55.940Z,5.58
2018-09-17T05:57:24.612Z,5.70
2018-09-17T05:59:53.658Z,5.53
2018-09-17T06:02:22.442Z,5.77
2018-09-17T06:04:51.483Z,5.60
2018-09-17T06:07:20.174Z,5.80
2018-09-17T06:09:49.958Z,5.87
2018-09-17T06:12:18.690Z,5.62
2018-09-17T06:14:47.450Z,6.00
2018-09-17T06:17:16.337Z,5.25
2018-09-17T06:19:45.458Z,5.78
2018-09-17T06:22:14.269Z,5.10
2018-09-17T06:24:42.856Z,5.25
2018-09-17T06:27:11.704Z,5.62
2018-09-17T06:29:40.607Z,5.10
2018-09-17T06:32:09.220Z,5.40
2018-09-17T06:34:37.862Z,5.67
2018-09-17T06:37:06.872Z,5.40
2018-09-17T06:39:36.051Z,5.50
2018-09-17T06:42:04.637Z,5.63
2018-09-17T06:44:33.378Z,5.50
2018-09-17T06:47:02.106Z,5.20
2018-09-17T06:49:30.796Z,5.22
2018-09-17T06:52:04.528Z,5.17
2018-09-17T06:54:34.213Z,5.60
2018-09-17T06:57:03.822Z,5.13
2018-09-17T06:59:33.108Z,4.58
2018-09-17T07:02:01.794Z,4.90
2018-09-17T07:04:30.502Z,4.70
2018-09-17T07:06:59.177Z,4.62
2018-09-17T07:09:27.946Z,4.87
2018-09-17T07:11:56.659Z,4.70
2018-09-17T07:14:25.514Z,4.53
2018-09-17T07:16:54.642Z,4.55
2018-09-17T07:19:23.458Z,4.30
2018-09-17T07:21:59.108Z,4.40
2018-09-17T07:24:41.858Z,4.80
2018-09-17T07:27:10.530Z,4.50
2018-09-17T07:29:38.983Z,4.60
2018-09-17T07:32:07.980Z,4.22
2018-09-17T07:34:36.982Z,4.65
2018-09-17T07:37:05.639Z,4.42
2018-09-17T07:39:34.330Z,4.42
2018-09-17T07:42:03.085Z,4.25
2018-09-17T07:44:32.020Z,4.67
2018-09-17T07:47:00.752Z,3.90
2018-09-17T07:49:29.518Z,4.00
2018-09-17T07:51:58.242Z,3.80
2018-09-17T07:54:28.351Z,3.60
2018-09-17T07:56:56.991Z,3.60
2018-09-17T07:59:25.614Z,3.75
2018-09-17T08:01:56.189Z,3.47
2018-09-17T08:07:09.020Z,3.67
2018-09-17T08:09:38.312Z,3.70
2018-09-17T08:12:07.107Z,3.37
2018-09-17T08:14:35.821Z,3.50
2018-09-17T08:17:05.041Z,3.30
2018-09-17T08:19:33.637Z,3.15
2018-09-17T08:22:02.361Z,3.40
2018-09-17T08:24:31.963Z,3.50
2018-09-17T08:27:00.541Z,3.50
2018-09-17T08:29:29.126Z,3.00
2018-09-17T08:31:58.167Z,3.23
2018-09-17T08:34:26.702Z,3.52
2018-09-17T08:36:55.360Z,2.97
2018-09-17T08:39:23.947Z,3.05
2018-09-17T08:41:52.533Z,3.17
2018-09-17T08:44:21.111Z,3.00
2018-09-17T08:46:49.661Z,2.83
2018-09-17T08:49:18.236Z,3.00
2018-09-17T08:51:46.898Z,3.00
2018-09-17T08:54:15.571Z,2.90
2018-09-17T08:56:50.224Z,2.90
2018-09-17T08:59:24.235Z,2.98
2018-09-17T09:01:57.912Z,2.90
2018-09-17T09:04:26.621Z,2.92
2018-09-17T09:06:55.439Z,3.20
2018-09-17T09:09:24.276Z,2.75
2018-09-17T09:11:56.993Z,3.02
2018-09-17T09:14:42.943Z,2.80
2018-09-17T09:17:12.289Z,3.05
2018-09-17T09:19:41.061Z,2.67
2018-09-17T09:22:09.793Z,2.45
2018-09-17T09:24:39.238Z,2.50
2018-09-17T09:27:10.898Z,2.70
2018-09-17T09:29:40.603Z,3.07
2018-09-17T09:32:09.803Z,2.70
2018-09-17T09:34:39.096Z,3.30
2018-09-17T09:37:08.045Z,2.70
2018-09-17T09:39:37.383Z,2.87
2018-09-17T09:42:06.088Z,2.60
2018-09-17T09:44:35.363Z,3.10
2018-09-17T09:47:04.953Z,2.67
2018-09-17T09:49:33.715Z,2.80
2018-09-17T09:52:07.919Z,2.80
2018-09-17T09:54:36.962Z,3.00
2018-09-17T09:57:05.729Z,2.83
2018-09-17T09:59:34.995Z,2.80
2018-09-17T10:02:08.767Z,2.80
2018-09-17T10:04:37.551Z,2.70
2018-09-17T10:07:06.427Z,3.02
2018-09-17T10:09:40.249Z,2.70
2018-09-17T10:12:15.639Z,2.67
2018-09-17T10:14:49.715Z,3.58
2018-09-17T10:17:23.623Z,2.60
2018-09-17T10:19:53.390Z,2.65
2018-09-17T10:22:22.140Z,2.90
2018-09-17T10:24:50.922Z,3.00
2018-09-17T10:27:19.680Z,3.10
2018-09-17T10:29:48.427Z,3.10
2018-09-17T10:32:17.347Z,2.85
2018-09-17T10:34:46.119Z,2.67
2018-09-17T10:37:14.741Z,3.00
2018-09-17T10:39:43.656Z,3.00
2018-09-17T10:42:25.989Z,3.20
2018-09-17T10:44:55.435Z,2.50
2018-09-17T10:47:25.894Z,2.95
2018-09-17T10:49:54.832Z,2.67
2018-09-17T10:52:23.563Z,2.70
2018-09-17T10:54:52.139Z,2.90
2018-09-17T10:57:20.641Z,3.05
2018-09-17T10:59:49.537Z,3.40
2018-09-17T11:02:18.441Z,3.25
2018-09-17T11:04:47.841Z,3.20
2018-09-17T11:07:16.529Z,2.92
2018-09-17T11:09:46.013Z,2.77
2018-09-17T11:12:14.718Z,2.62
2018-09-17T11:14:43.326Z,2.67
2018-09-17T11:17:11.994Z,3.10
2018-09-17T11:19:40.667Z,3.40
2018-09-17T11:22:09.471Z,3.22
2018-09-17T11:24:38.055Z,3.20
2018-09-17T11:27:06.830Z,3.10
2018-09-17T11:29:35.536Z,3.25
2018-09-17T11:32:04.471Z,3.90
2018-09-17T11:34:33.059Z,3.33
2018-09-17T11:37:01.587Z,3.20
2018-09-17T11:39:30.165Z,3.00
2018-09-17T11:41:59.011Z,3.40
2018-09-17T11:44:27.659Z,3.10
2018-09-17T11:46:56.465Z,2.90
2018-09-17T11:49:25.391Z,2.90
2018-09-17T11:51:54.267Z,2.97
2018-09-17T11:54:23.071Z,3.00
2018-09-17T11:56:51.893Z,2.90
2018-09-17T11:59:20.572Z,3.42
2018-09-17T12:01:55.603Z,3.05
2018-09-17T12:04:29.853Z,3.15
2018-09-17T12:07:03.847Z,2.95
2018-09-17T12:09:32.481Z,2.90
2018-09-17T12:12:01.327Z,2.80
2018-09-17T12:14:30.024Z,2.83
2018-09-17T12:16:58.959Z,3.20
2018-09-17T12:19:27.940Z,2.75
2018-09-17T12:21:56.493Z,2.62
2018-09-17T12:24:27.644Z,2.90
2018-09-17T12:26:56.514Z,3.30
2018-09-17T12:29:25.916Z,4.10
2018-09-17T12:31:54.582Z,3.60
2018-09-17T12:34:23.237Z,3.00
2018-09-17T12:36:51.853Z,3.02
2018-09-17T12:39:20.678Z,3.55
2018-09-17T12:41:50.334Z,3.33
2018-09-17T12:44:19.531Z,4.30
2018-09-17T12:46:48.212Z,3.30
2018-09-17T12:49:16.957Z,3.10
2018-09-17T12:51:46.560Z,3.30
2018-09-17T12:54:17.914Z,3.22
2018-09-17T12:56:47.153Z,3.22
2018-09-17T12:59:23.431Z,3.02
2018-09-17T13:01:54.201Z,3.37
2018-09-17T13:04:22.725Z,3.40
2018-09-17T13:06:51.316Z,3.10
2018-09-17T13:09:21.923Z,3.30
2018-09-17T13:11:51.007Z,3.45
2018-09-17T13:14:19.681Z,3.08
2018-09-17T13:16:49.030Z,3.30
2018-09-17T13:19:18.534Z,2.90
2018-09-17T13:21:47.342Z,3.08
2018-09-17T13:24:15.965Z,3.10
2018-09-17T13:26:44.734Z,3.17
2018-09-17T13:29:13.577Z,5.12
2018-09-17T13:31:42.248Z,3.27
2018-09-17T13:34:10.813Z,3.20
2018-09-17T13:36:39.439Z,3.10
2018-09-17T13:39:09.177Z,3.15
2018-09-17T13:41:37.833Z,3.40
2018-09-17T13:44:08.861Z,3.10
2018-09-17T13:46:37.522Z,3.22
2018-09-17T13:49:06.246Z,3.40
2018-09-17T13:51:39.960Z,3.08
2018-09-17T13:54:08.900Z,3.00
2018-09-17T13:56:37.871Z,3.00
2018-09-17T13:59:08.335Z,3.45
2018-09-17T14:01:36.993Z,3.20
2018-09-17T14:04:05.622Z,3.02
2018-09-17T14:06:34.264Z,3.20
2018-09-17T14:09:03.401Z,5.45
2018-09-17T14:11:37.235Z,4.62
2018-09-17T14:14:06.038Z,6.35
2018-09-17T14:16:36.500Z,5.97
2018-09-17T14:19:05.469Z,3.80
2018-09-17T14:21:35.781Z,4.35
2018-09-17T14:24:08.803Z,4.47
2018-09-17T14:26:38.258Z,4.22
2018-09-17T14:29:06.877Z,3.67
2018-09-17T14:32:41.349Z,3.55
2018-09-17T15:44:24.391Z,3.40
2018-09-17T15:46:53.518Z,4.78
2018-09-17T15:49:21.967Z,5.67
2018-09-17T15:51:50.654Z,7.67
2018-09-17T15:54:19.170Z,5.08
2018-09-17T15:56:47.760Z,6.47
2018-09-17T15:59:16.253Z,5.75
2018-09-17T16:01:44.983Z,4.37
2018-09-17T16:04:13.572Z,4.20
2018-09-17T16:06:42.563Z,4.17
2018-09-17T16:09:11.173Z,3.70
2018-09-17T16:11:39.752Z,3.67
2018-09-17T16:14:08.396Z,3.60
2018-09-17T16:16:37.080Z,3.40
2018-09-17T16:19:05.853Z,3.65
2018-09-17T16:21:34.497Z,3.90
2018-09-17T16:24:03.188Z,3.87
2018-09-17T16:26:31.775Z,3.62
2018-09-17T16:29:00.743Z,3.50
2018-09-17T16:31:29.548Z,3.60
2018-09-17T16:33:58.219Z,3.55
2018-09-17T16:36:27.303Z,3.70
2018-09-17T16:38:56.134Z,3.60
2018-09-17T16:41:24.904Z,4.00
2018-09-17T16:43:53.677Z,4.10
2018-09-17T16:46:22.328Z,3.90
2018-09-17T16:48:50.936Z,4.10
2018-09-17T16:51:19.480Z,3.77
2018-09-17T16:53:48.254Z,3.95
2018-09-17T16:56:16.858Z,4.33
2018-09-17T16:58:45.440Z,4.03
2018-09-17T17:01:14.665Z,4.07
2018-09-17T17:03:43.196Z,4.22
2018-09-17T17:06:11.816Z,4.10
2018-09-17T17:08:40.722Z,8.70
2018-09-17T17:11:09.666Z,7.78
2018-09-17T17:13:38.225Z,9.13
2018-09-17T17:16:06.925Z,6.72
2018-09-17T17:18:35.611Z,6.20
2018-09-17T17:21:04.273Z,5.37
2018-09-17T17:23:33.050Z,5.00
2018-09-17T17:26:01.642Z,5.58
2018-09-17T17:28:30.139Z,5.62
2018-09-17T17:30:59.042Z,5.72
2018-09-17T17:33:27.734Z,5.95
2018-09-17T17:35:56.537Z,5.70
2018-09-17T17:38:25.149Z,6.20
2018-09-17T17:41:07.306Z,5.75
2018-09-17T17:43:36.020Z,5.70
2018-09-17T17:46:04.788Z,5.90
2018-09-17T17:48:33.469Z,5.85
2018-09-17T17:51:02.115Z,5.60
2018-09-17T17:53:30.916Z,6.30
2018-09-17T17:55:59.607Z,6.03
2018-09-17T18:03:24.267Z,5.45
2018-09-17T18:05:53.142Z,5.90
2018-09-17T18:08:21.698Z,5.75
2018-09-17T18:10:55.324Z,6.15
2018-09-17T18:13:24.011Z,5.95
2018-09-17T18:15:52.769Z,5.72
2018-09-17T18:18:21.691Z,6.30
2018-09-17T18:20:59.704Z,6.12
2018-09-17T18:23:28.379Z,6.55
2018-09-17T18:33:21.456Z,7.78
2018-09-17T18:35:50.242Z,7.72
2018-09-17T18:38:19.587Z,7.80
2018-09-17T18:40:53.908Z,7.67
2018-09-17T18:43:23.152Z,7.90
2018-09-17T18:45:51.841Z,8.07
2018-09-17T18:48:20.725Z,8.33
2018-09-17T18:50:49.414Z,8.25
2018-09-17T18:53:18.507Z,8.00
2018-09-17T18:55:47.301Z,8.63
2018-09-17T18:58:16.345Z,8.83
2018-09-17T19:00:45.199Z,8.77
2018-09-17T19:03:13.963Z,9.45
2018-09-17T19:05:42.818Z,9.85
2018-09-17T19:08:11.552Z,9.10
2018-09-17T19:10:41.318Z,8.70
2018-09-17T19:13:10.307Z,9.73
2018-09-17T19:15:44.223Z,9.60
2018-09-17T19:18:17.757Z,8.75
2018-09-17T19:20:47.761Z,8.90
2018-09-17T19:23:21.204Z,9.80
2018-09-17T19:25:50.246Z,10.70
2018-09-17T19:28:24.149Z,9.18
2018-09-17T19:33:48.182Z,8.57
2018-09-17T19:36:23.038Z,8.60
2018-09-17T19:38:57.775Z,8.75
2018-09-17T19:41:28.980Z,7.20
2018-09-17T19:43:58.267Z,7.08
2018-09-17T19:46:26.982Z,6.70
2018-09-17T19:48:55.671Z,6.78
2018-09-17T19:51:29.506Z,6.77
2018-09-17T19:53:58.673Z,6.90
2018-09-17T19:56:27.787Z,7.00
2018-09-17T19:59:01.860Z,6.55
2018-09-17T20:01:37.127Z,5.72
2018-09-17T20:04:13.431Z,5.90
2018-09-17T20:06:42.570Z,5.22
2018-09-17T20:09:14.545Z,5.00
2018-09-17T20:11:45.576Z,5.17
2018-09-17T20:14:14.733Z,5.40
2018-09-17T20:16:43.513Z,6.97
2018-09-17T20:19:12.191Z,6.30
2018-09-17T20:21:41.127Z,5.43
2018-09-17T20:24:09.747Z,5.67
2018-09-17T20:26:38.413Z,5.75
2018-09-17T20:29:07.125Z,6.67
2018-09-17T20:31:35.871Z,6.00
2018-09-17T20:34:04.727Z,5.85
2018-09-17T20:36:33.624Z,5.57
2018-09-17T20:39:02.163Z,4.80
2018-09-17T20:41:30.922Z,5.00
2018-09-17T20:43:59.600Z,4.83
2018-09-17T20:46:28.140Z,4.58
2018-09-17T20:48:56.914Z,4.75
2018-09-17T20:51:25.585Z,4.97
2018-09-17T20:53:54.476Z,5.35
2018-09-17T20:56:22.883Z,5.22
2018-09-17T20:58:51.540Z,5.30
2018-09-17T21:01:20.247Z,5.00
2018-09-17T21:03:49.049Z,5.20
2018-09-17T21:06:17.861Z,5.27
2018-09-17T21:08:46.471Z,5.35
2018-09-17T21:11:15.000Z,5.20
2018-09-17T21:13:43.581Z,4.95
2018-09-17T21:16:12.409Z,5.43
2018-09-17T21:18:48.980Z,5.78
2018-09-17T21:21:17.715Z,5.40
2018-09-17T21:23:46.188Z,5.67
2018-09-17T21:26:14.793Z,5.42
2018-09-17T21:28:43.320Z,5.00
2018-09-17T21:31:11.846Z,5.80
2018-09-17T21:33:40.416Z,5.40
2018-09-17T21:36:09.229Z,5.83
2018-09-17T21:38:37.825Z,5.62
2018-09-17T21:41:06.575Z,5.20
2018-09-17T21:43:35.062Z,4.65
2018-09-17T21:46:03.751Z,5.20
2018-09-17T21:48:32.399Z,5.58
2018-09-17T21:51:01.235Z,5.70
2018-09-17T21:53:29.830Z,5.40
2018-09-17T21:55:58.519Z,5.53
2018-09-17T21:58:27.179Z,5.50
2018-09-17T22:01:02.065Z,5.83
2018-09-17T22:03:32.622Z,5.30
2018-09-17T22:06:01.659Z,5.47
2018-09-17T22:08:30.908Z,6.12
2018-09-17T22:10:59.591Z,5.80
2018-09-17T22:13:28.644Z,6.12
2018-09-17T22:15:57.492Z,6.07
2018-09-17T22:18:26.162Z,5.95
2018-09-17T22:20:54.842Z,6.05
2018-09-17T22:23:23.449Z,6.80
2018-09-17T22:25:52.023Z,6.22
2018-09-17T22:28:20.502Z,6.20
2018-09-17T22:30:49.441Z,6.15
2018-09-17T22:33:17.989Z,6.87
2018-09-17T22:35:46.544Z,6.20
2018-09-17T22:38:15.048Z,6.30
2018-09-17T22:40:43.529Z,5.55
2018-09-17T22:43:12.125Z,6.03
2018-09-17T22:45:40.799Z,5.83
2018-09-17T22:48:09.320Z,5.75
2018-09-17T22:50:37.912Z,5.58
2018-09-17T22:53:06.532Z,5.28
2018-09-17T22:55:35.043Z,6.05
2018-09-17T22:58:03.749Z,5.75
2018-09-17T23:00:32.499Z,6.20
2018-09-17T23:03:01.127Z,5.65
2018-09-17T23:05:29.965Z,6.15
2018-09-17T23:07:58.649Z,6.35
2018-09-17T23:10:27.295Z,5.83
2018-09-17T23:12:55.899Z,5.87
2018-09-17T23:15:24.546Z,6.00
2018-09-17T23:17:53.404Z,5.65
2018-09-17T23:20:23.501Z,6.10
2018-09-17T23:22:52.321Z,6.12
2018-09-17T23:25:22.013Z,6.28
2018-09-17T23:27:51.869Z,6.37
2018-09-17T23:30:20.738Z,6.00
2018-09-17T23:32:49.706Z,5.75
2018-09-17T23:35:19.329Z,6.22
2018-09-17T23:37:48.225Z,6.08
2018-09-17T23:40:20.596Z,5.75
2018-09-17T23:42:54.532Z,5.83
2018-09-17T23:45:23.422Z,5.83
2018-09-17T23:47:52.258Z,6.05
2018-09-17T23:50:21.143Z,5.55
2018-09-17T23:52:50.070Z,5.97
2018-09-17T23:55:18.587Z,5.87
2018-09-17T23:57:47.857Z,6.50
